sensor_id;sensor_type;location;lat;lon;timestamp;P1;durP1;ratioP1;P2;durP2;ratioP2
58242;SDS011;50118;53.232;8.252;2022-10-16T00:00:35;8.10;;;4.18;;
58242;SDS011;50118;53.232;8.252;2022-10-16T00:03:40;8.93;;;3.72;;
58242;SDS011;50118;53.232;8.252;2022-10-16T00:20:33;7.60;;;3.63;;
58242;SDS011;50118;53.232;8.252;2022-10-16T00:31:10;8.02;;;3.50;;
58242;SDS011;50118;53.232;8.252;2022-10-16T00:37:33;5.88;;;2.92;;
58242;SDS011;50118;53.232;8.252;2022-10-16T00:50:43;7.50;;;2.97;;
58242;SDS011;50118;53.232;8.252;2022-10-16T00:53:15;5.53;;;2.65;;
58242;SDS011;50118;53.232;8.252;2022-10-16T00:56:37;8.70;;;2.83;;
58242;SDS011;50118;53.232;8.252;2022-10-16T00:59:07;7.43;;;2.95;;
58242;SDS011;50118;53.232;8.252;2022-10-16T01:01:47;5.13;;;2.97;;
58242;SDS011;50118;53.232;8.252;2022-10-16T01:04:53;4.45;;;2.72;;
58242;SDS011;50118;53.232;8.252;2022-10-16T01:08:18;6.05;;;2.58;;
58242;SDS011;50118;53.232;8.252;2022-10-16T01:21:26;5.88;;;2.63;;
58242;SDS011;50118;53.232;8.252;2022-10-16T01:27:40;6.22;;;2.65;;
58242;SDS011;50118;53.232;8.252;2022-10-16T01:34:16;5.60;;;2.60;;
58242;SDS011;50118;53.232;8.252;2022-10-16T01:37:29;5.05;;;2.70;;
58242;SDS011;50118;53.232;8.252;2022-10-16T01:40:49;5.30;;;2.45;;
58242;SDS011;50118;53.232;8.252;2022-10-16T02:03:11;5.70;;;2.45;;
58242;SDS011;50118;53.232;8.252;2022-10-16T02:22:57;5.65;;;2.20;;
58242;SDS011;50118;53.232;8.252;2022-10-16T02:37:16;6.63;;;2.30;;
58242;SDS011;50118;53.232;8.252;2022-10-16T02:56:44;4.22;;;2.20;;
58242;SDS011;50118;53.232;8.252;2022-10-16T03:03:17;3.80;;;2.10;;
58242;SDS011;50118;53.232;8.252;2022-10-16T03:06:30;4.47;;;2.10;;
58242;SDS011;50118;53.232;8.252;2022-10-16T03:19:19;3.35;;;2.05;;
58242;SDS011;50118;53.232;8.252;2022-10-16T03:22:05;3.90;;;2.13;;
58242;SDS011;50118;53.232;8.252;2022-10-16T03:24:58;4.50;;;2.17;;
58242;SDS011;50118;53.232;8.252;2022-10-16T03:27:40;4.10;;;2.15;;
58242;SDS011;50118;53.232;8.252;2022-10-16T03:30:21;3.88;;;1.95;;
58242;SDS011;50118;53.232;8.252;2022-10-16T03:33:32;5.57;;;2.03;;
58242;SDS011;50118;53.232;8.252;2022-10-16T03:36:07;5.72;;;2.10;;
58242;SDS011;50118;53.232;8.252;2022-10-16T03:38:35;4.82;;;1.80;;
58242;SDS011;50118;53.232;8.252;2022-10-16T03:41:04;6.93;;;2.03;;
58242;SDS011;50118;53.232;8.252;2022-10-16T03:44:28;4.10;;;1.90;;
58242;SDS011;50118;53.232;8.252;2022-10-16T03:53:20;8.63;;;2.30;;
58242;SDS011;50118;53.232;8.252;2022-10-16T03:59:14;5.57;;;2.42;;
58242;SDS011;50118;53.232;8.252;2022-10-16T04:21:06;4.13;;;2.30;;
58242;SDS011;50118;53.232;8.252;2022-10-16T04:23:32;5.82;;;2.58;;
58242;SDS011;50118;53.232;8.252;2022-10-16T04:25:58;4.35;;;2.42;;
58242;SDS011;50118;53.232;8.252;2022-10-16T04:28:24;5.75;;;2.92;;
58242;SDS011;50118;53.232;8.252;2022-10-16T04:30:50;5.47;;;2.55;;
58242;SDS011;50118;53.232;8.252;2022-10-16T04:33:15;5.93;;;2.75;;
58242;SDS011;50118;53.232;8.252;2022-10-16T04:35:41;7.38;;;3.00;;
58242;SDS011;50118;53.232;8.252;2022-10-16T04:38:06;7.70;;;2.95;;
58242;SDS011;50118;53.232;8.252;2022-10-16T04:40:32;6.40;;;3.08;;
58242;SDS011;50118;53.232;8.252;2022-10-16T04:42:58;5.68;;;2.95;;
58242;SDS011;50118;53.232;8.252;2022-10-16T04:45:24;7.05;;;3.13;;
58242;SDS011;50118;53.232;8.252;2022-10-16T04:47:50;6.43;;;3.30;;
58242;SDS011;50118;53.232;8.252;2022-10-16T04:50:15;7.70;;;3.47;;
58242;SDS011;50118;53.232;8.252;2022-10-16T04:52:49;7.25;;;3.60;;
58242;SDS011;50118;53.232;8.252;2022-10-16T04:55:14;7.72;;;3.55;;
58242;SDS011;50118;53.232;8.252;2022-10-16T04:57:40;5.40;;;3.47;;
58242;SDS011;50118;53.232;8.252;2022-10-16T05:00:06;6.43;;;4.00;;
58242;SDS011;50118;53.232;8.252;2022-10-16T05:02:33;6.57;;;3.95;;
58242;SDS011;50118;53.232;8.252;2022-10-16T05:05:44;7.28;;;4.00;;
58242;SDS011;50118;53.232;8.252;2022-10-16T05:07:56;9.60;;;4.68;;
58242;SDS011;50118;53.232;8.252;2022-10-16T05:10:22;6.05;;;4.10;;
58242;SDS011;50118;53.232;8.252;2022-10-16T05:12:47;7.72;;;4.30;;
58242;SDS011;50118;53.232;8.252;2022-10-16T05:15:13;9.57;;;4.60;;
58242;SDS011;50118;53.232;8.252;2022-10-16T05:17:39;8.73;;;5.28;;
58242;SDS011;50118;53.232;8.252;2022-10-16T05:20:04;10.13;;;4.95;;
58242;SDS011;50118;53.232;8.252;2022-10-16T05:22:30;7.45;;;4.80;;
58242;SDS011;50118;53.232;8.252;2022-10-16T05:24:56;10.88;;;5.70;;
58242;SDS011;50118;53.232;8.252;2022-10-16T05:27:24;7.65;;;5.13;;
58242;SDS011;50118;53.232;8.252;2022-10-16T05:29:49;9.15;;;5.55;;
58242;SDS011;50118;53.232;8.252;2022-10-16T05:32:15;9.10;;;5.50;;
58242;SDS011;50118;53.232;8.252;2022-10-16T05:35:13;12.02;;;6.05;;
58242;SDS011;50118;53.232;8.252;2022-10-16T05:37:39;9.32;;;5.82;;
58242;SDS011;50118;53.232;8.252;2022-10-16T05:40:05;8.40;;;5.45;;
58242;SDS011;50118;53.232;8.252;2022-10-16T05:42:31;11.88;;;5.90;;
58242;SDS011;50118;53.232;8.252;2022-10-16T05:44:57;7.55;;;5.07;;
58242;SDS011;50118;53.232;8.252;2022-10-16T05:47:28;10.57;;;5.65;;
58242;SDS011;50118;53.232;8.252;2022-10-16T05:49:56;8.85;;;5.68;;
58242;SDS011;50118;53.232;8.252;2022-10-16T05:52:31;9.07;;;5.55;;
58242;SDS011;50118;53.232;8.252;2022-10-16T05:54:56;11.13;;;5.85;;
58242;SDS011;50118;53.232;8.252;2022-10-16T05:57:22;9.77;;;6.30;;
58242;SDS011;50118;53.232;8.252;2022-10-16T05:59:47;10.23;;;5.88;;
58242;SDS011;50118;53.232;8.252;2022-10-16T06:02:25;9.73;;;6.15;;
58242;SDS011;50118;53.232;8.252;2022-10-16T06:04:51;11.02;;;5.57;;
58242;SDS011;50118;53.232;8.252;2022-10-16T06:07:19;11.38;;;6.32;;
58242;SDS011;50118;53.232;8.252;2022-10-16T06:10:08;10.88;;;6.30;;
58242;SDS011;50118;53.232;8.252;2022-10-16T06:12:33;9.68;;;6.05;;
58242;SDS011;50118;53.232;8.252;2022-10-16T06:14:59;11.00;;;6.05;;
58242;SDS011;50118;53.232;8.252;2022-10-16T06:17:24;10.20;;;5.50;;
58242;SDS011;50118;53.232;8.252;2022-10-16T06:19:50;9.52;;;5.88;;
58242;SDS011;50118;53.232;8.252;2022-10-16T06:22:15;8.70;;;5.72;;
58242;SDS011;50118;53.232;8.252;2022-10-16T06:24:41;8.45;;;5.60;;
58242;SDS011;50118;53.232;8.252;2022-10-16T06:27:28;10.77;;;5.68;;
58242;SDS011;50118;53.232;8.252;2022-10-16T06:29:52;8.93;;;6.00;;
58242;SDS011;50118;53.232;8.252;2022-10-16T06:32:18;8.93;;;5.60;;
58242;SDS011;50118;53.232;8.252;2022-10-16T06:34:44;8.63;;;5.53;;
58242;SDS011;50118;53.232;8.252;2022-10-16T06:37:09;8.77;;;5.40;;
58242;SDS011;50118;53.232;8.252;2022-10-16T06:39:37;9.43;;;5.80;;
58242;SDS011;50118;53.232;8.252;2022-10-16T06:42:05;8.50;;;5.22;;
58242;SDS011;50118;53.232;8.252;2022-10-16T06:44:31;8.30;;;5.53;;
58242;SDS011;50118;53.232;8.252;2022-10-16T06:46:56;8.73;;;5.45;;
58242;SDS011;50118;53.232;8.252;2022-10-16T06:49:22;10.18;;;5.45;;
58242;SDS011;50118;53.232;8.252;2022-10-16T06:51:48;7.32;;;5.22;;
58242;SDS011;50118;53.232;8.252;2022-10-16T06:54:14;7.88;;;4.78;;
58242;SDS011;50118;53.232;8.252;2022-10-16T06:56:41;8.48;;;4.78;;
58242;SDS011;50118;53.232;8.252;2022-10-16T06:59:53;9.68;;;4.97;;
58242;SDS011;50118;53.232;8.252;2022-10-16T07:02:19;9.43;;;4.93;;
58242;SDS011;50118;53.232;8.252;2022-10-16T07:04:44;7.03;;;4.57;;
58242;SDS011;50118;53.232;8.252;2022-10-16T07:07:10;7.18;;;4.30;;
58242;SDS011;50118;53.232;8.252;2022-10-16T07:09:35;7.78;;;4.38;;
58242;SDS011;50118;53.232;8.252;2022-10-16T07:12:01;7.88;;;4.53;;
58242;SDS011;50118;53.232;8.252;2022-10-16T07:14:29;7.40;;;4.43;;
58242;SDS011;50118;53.232;8.252;2022-10-16T07:16:55;9.40;;;4.35;;
58242;SDS011;50118;53.232;8.252;2022-10-16T07:19:21;8.15;;;4.70;;
58242;SDS011;50118;53.232;8.252;2022-10-16T07:21:46;6.93;;;4.38;;
58242;SDS011;50118;53.232;8.252;2022-10-16T07:24:15;7.55;;;4.35;;
58242;SDS011;50118;53.232;8.252;2022-10-16T07:26:42;6.32;;;4.10;;
58242;SDS011;50118;53.232;8.252;2022-10-16T07:29:12;8.73;;;3.88;;
58242;SDS011;50118;53.232;8.252;2022-10-16T07:31:39;6.18;;;3.75;;
58242;SDS011;50118;53.232;8.252;2022-10-16T07:34:05;7.10;;;3.80;;
58242;SDS011;50118;53.232;8.252;2022-10-16T07:36:30;6.97;;;3.72;;
58242;SDS011;50118;53.232;8.252;2022-10-16T07:38:55;5.43;;;3.33;;
58242;SDS011;50118;53.232;8.252;2022-10-16T07:41:21;8.15;;;3.63;;
58242;SDS011;50118;53.232;8.252;2022-10-16T07:44:07;6.25;;;3.55;;
58242;SDS011;50118;53.232;8.252;2022-10-16T07:46:33;6.63;;;3.60;;
58242;SDS011;50118;53.232;8.252;2022-10-16T07:49:00;7.05;;;3.55;;
58242;SDS011;50118;53.232;8.252;2022-10-16T07:51:26;4.97;;;2.95;;
58242;SDS011;50118;53.232;8.252;2022-10-16T07:53:52;7.90;;;3.97;;
58242;SDS011;50118;53.232;8.252;2022-10-16T07:56:18;4.78;;;2.80;;
58242;SDS011;50118;53.232;8.252;2022-10-16T07:58:44;5.35;;;3.05;;
58242;SDS011;50118;53.232;8.252;2022-10-16T08:01:14;5.75;;;3.05;;
58242;SDS011;50118;53.232;8.252;2022-10-16T08:03:43;5.18;;;3.10;;
58242;SDS011;50118;53.232;8.252;2022-10-16T08:06:10;6.07;;;3.13;;
58242;SDS011;50118;53.232;8.252;2022-10-16T08:08:36;4.57;;;2.55;;
58242;SDS011;50118;53.232;8.252;2022-10-16T08:11:01;4.88;;;2.63;;
58242;SDS011;50118;53.232;8.252;2022-10-16T08:13:28;4.72;;;2.80;;
58242;SDS011;50118;53.232;8.252;2022-10-16T08:15:55;7.13;;;2.90;;
58242;SDS011;50118;53.232;8.252;2022-10-16T08:18:21;5.40;;;2.50;;
58242;SDS011;50118;53.232;8.252;2022-10-16T08:20:56;4.82;;;2.50;;
58242;SDS011;50118;53.232;8.252;2022-10-16T08:23:23;4.80;;;2.60;;
58242;SDS011;50118;53.232;8.252;2022-10-16T08:25:50;4.88;;;2.33;;
58242;SDS011;50118;53.232;8.252;2022-10-16T08:28:17;4.15;;;2.38;;
58242;SDS011;50118;53.232;8.252;2022-10-16T08:30:42;5.55;;;2.60;;
58242;SDS011;50118;53.232;8.252;2022-10-16T08:33:08;4.07;;;2.38;;
58242;SDS011;50118;53.232;8.252;2022-10-16T08:35:33;4.78;;;2.40;;
58242;SDS011;50118;53.232;8.252;2022-10-16T08:37:58;4.68;;;2.30;;
58242;SDS011;50118;53.232;8.252;2022-10-16T08:48:45;3.95;;;2.17;;
58242;SDS011;50118;53.232;8.252;2022-10-16T08:51:20;5.03;;;2.20;;
58242;SDS011;50118;53.232;8.252;2022-10-16T08:53:49;3.55;;;1.90;;
58242;SDS011;50118;53.232;8.252;2022-10-16T08:56:18;4.68;;;1.98;;
58242;SDS011;50118;53.232;8.252;2022-10-16T08:58:44;4.45;;;1.85;;
58242;SDS011;50118;53.232;8.252;2022-10-16T09:01:12;4.68;;;1.92;;
58242;SDS011;50118;53.232;8.252;2022-10-16T09:06:50;4.25;;;1.80;;
58242;SDS011;50118;53.232;8.252;2022-10-16T09:09:34;5.30;;;1.73;;
58242;SDS011;50118;53.232;8.252;2022-10-16T09:17:43;5.93;;;2.00;;
58242;SDS011;50118;53.232;8.252;2022-10-16T09:22:43;4.57;;;1.60;;
58242;SDS011;50118;53.232;8.252;2022-10-16T09:28:49;5.65;;;1.80;;
58242;SDS011;50118;53.232;8.252;2022-10-16T09:31:18;3.97;;;1.67;;
58242;SDS011;50118;53.232;8.252;2022-10-16T09:33:58;4.95;;;1.70;;
58242;SDS011;50118;53.232;8.252;2022-10-16T09:36:25;3.88;;;1.60;;
58242;SDS011;50118;53.232;8.252;2022-10-16T09:39:06;4.82;;;1.50;;
58242;SDS011;50118;53.232;8.252;2022-10-16T09:41:37;3.20;;;1.70;;
58242;SDS011;50118;53.232;8.252;2022-10-16T09:44:12;5.05;;;1.52;;
58242;SDS011;50118;53.232;8.252;2022-10-16T09:47:02;2.95;;;1.48;;
58242;SDS011;50118;53.232;8.252;2022-10-16T09:49:29;4.55;;;1.55;;
58242;SDS011;50118;53.232;8.252;2022-10-16T09:55:00;4.00;;;1.42;;
58242;SDS011;50118;53.232;8.252;2022-10-16T09:57:47;4.00;;;1.48;;
58242;SDS011;50118;53.232;8.252;2022-10-16T10:00:15;3.58;;;1.40;;
58242;SDS011;50118;53.232;8.252;2022-10-16T10:02:43;3.72;;;1.50;;
58242;SDS011;50118;53.232;8.252;2022-10-16T10:05:19;3.60;;;1.25;;
58242;SDS011;50118;53.232;8.252;2022-10-16T10:07:59;4.90;;;1.30;;
58242;SDS011;50118;53.232;8.252;2022-10-16T10:10:32;3.17;;;1.27;;
58242;SDS011;50118;53.232;8.252;2022-10-16T10:12:59;4.57;;;1.30;;
58242;SDS011;50118;53.232;8.252;2022-10-16T10:15:25;3.50;;;1.10;;
58242;SDS011;50118;53.232;8.252;2022-10-16T10:17:58;3.70;;;1.38;;
58242;SDS011;50118;53.232;8.252;2022-10-16T10:26:01;3.15;;;1.10;;
58242;SDS011;50118;53.232;8.252;2022-10-16T10:28:51;3.47;;;1.30;;
58242;SDS011;50118;53.232;8.252;2022-10-16T10:31:26;4.03;;;1.27;;
58242;SDS011;50118;53.232;8.252;2022-10-16T10:55:57;5.85;;;1.30;;
58242;SDS011;50118;53.232;8.252;2022-10-16T11:06:40;3.28;;;1.20;;
58242;SDS011;50118;53.232;8.252;2022-10-16T11:09:13;3.58;;;1.10;;
58242;SDS011;50118;53.232;8.252;2022-10-16T11:12:35;2.40;;;1.30;;
58242;SDS011;50118;53.232;8.252;2022-10-16T11:15:37;6.82;;;1.30;;
58242;SDS011;50118;53.232;8.252;2022-10-16T11:18:11;6.53;;;1.27;;
58242;SDS011;50118;53.232;8.252;2022-10-16T11:20:50;3.30;;;1.30;;
58242;SDS011;50118;53.232;8.252;2022-10-16T11:24:22;3.03;;;1.15;;
58242;SDS011;50118;53.232;8.252;2022-10-16T11:26:39;5.70;;;1.52;;
58242;SDS011;50118;53.232;8.252;2022-10-16T11:32:25;5.43;;;1.30;;
58242;SDS011;50118;53.232;8.252;2022-10-16T11:35:00;4.95;;;1.40;;
58242;SDS011;50118;53.232;8.252;2022-10-16T11:37:40;3.67;;;1.33;;
58242;SDS011;50118;53.232;8.252;2022-10-16T11:53:13;6.60;;;1.30;;
58242;SDS011;50118;53.232;8.252;2022-10-16T11:56:28;7.80;;;1.30;;
58242;SDS011;50118;53.232;8.252;2022-10-16T11:58:59;4.07;;;1.27;;
58242;SDS011;50118;53.232;8.252;2022-10-16T12:10:37;4.65;;;1.30;;
58242;SDS011;50118;53.232;8.252;2022-10-16T12:13:05;5.43;;;1.40;;
58242;SDS011;50118;53.232;8.252;2022-10-16T12:19:11;2.75;;;0.93;;
58242;SDS011;50118;53.232;8.252;2022-10-16T12:21:47;7.38;;;1.30;;
58242;SDS011;50118;53.232;8.252;2022-10-16T12:24:21;7.07;;;1.33;;
58242;SDS011;50118;53.232;8.252;2022-10-16T12:26:59;5.10;;;1.50;;
58242;SDS011;50118;53.232;8.252;2022-10-16T12:30:04;4.50;;;1.30;;
58242;SDS011;50118;53.232;8.252;2022-10-16T12:32:45;3.67;;;1.20;;
58242;SDS011;50118;53.232;8.252;2022-10-16T12:35:20;6.88;;;1.35;;
58242;SDS011;50118;53.232;8.252;2022-10-16T12:37:48;5.32;;;1.40;;
58242;SDS011;50118;53.232;8.252;2022-10-16T12:40:30;5.90;;;1.35;;
58242;SDS011;50118;53.232;8.252;2022-10-16T12:42:59;4.50;;;1.48;;
58242;SDS011;50118;53.232;8.252;2022-10-16T12:45:35;7.45;;;1.55;;
58242;SDS011;50118;53.232;8.252;2022-10-16T12:48:01;4.80;;;1.30;;
58242;SDS011;50118;53.232;8.252;2022-10-16T13:06:52;5.90;;;1.50;;
58242;SDS011;50118;53.232;8.252;2022-10-16T13:18:33;5.97;;;1.35;;
58242;SDS011;50118;53.232;8.252;2022-10-16T13:21:18;5.03;;;1.30;;
58242;SDS011;50118;53.232;8.252;2022-10-16T13:24:15;5.18;;;1.13;;
58242;SDS011;50118;53.232;8.252;2022-10-16T13:30:42;4.43;;;1.45;;
58242;SDS011;50118;53.232;8.252;2022-10-16T13:35:54;4.65;;;1.48;;
58242;SDS011;50118;53.232;8.252;2022-10-16T13:44:49;7.43;;;1.75;;
58242;SDS011;50118;53.232;8.252;2022-10-16T13:51:15;4.93;;;1.20;;
58242;SDS011;50118;53.232;8.252;2022-10-16T13:53:42;5.03;;;1.50;;
58242;SDS011;50118;53.232;8.252;2022-10-16T13:56:12;4.30;;;1.40;;
58242;SDS011;50118;53.232;8.252;2022-10-16T14:01:32;6.60;;;1.40;;
58242;SDS011;50118;53.232;8.252;2022-10-16T14:04:11;7.50;;;1.40;;
58242;SDS011;50118;53.232;8.252;2022-10-16T14:09:42;5.80;;;1.35;;
58242;SDS011;50118;53.232;8.252;2022-10-16T14:12:12;4.75;;;1.60;;
58242;SDS011;50118;53.232;8.252;2022-10-16T14:14:42;5.00;;;1.30;;
58242;SDS011;50118;53.232;8.252;2022-10-16T14:17:23;6.00;;;1.40;;
58242;SDS011;50118;53.232;8.252;2022-10-16T14:19:54;4.45;;;1.30;;
58242;SDS011;50118;53.232;8.252;2022-10-16T14:22:24;3.70;;;1.40;;
58242;SDS011;50118;53.232;8.252;2022-10-16T14:24:57;4.68;;;1.30;;
58242;SDS011;50118;53.232;8.252;2022-10-16T14:27:24;7.20;;;1.50;;
58242;SDS011;50118;53.232;8.252;2022-10-16T14:30:08;5.70;;;1.60;;
58242;SDS011;50118;53.232;8.252;2022-10-16T14:32:37;9.18;;;1.60;;
58242;SDS011;50118;53.232;8.252;2022-10-16T14:35:21;7.78;;;1.50;;
58242;SDS011;50118;53.232;8.252;2022-10-16T14:40:16;4.85;;;1.30;;
58242;SDS011;50118;53.232;8.252;2022-10-16T14:42:43;5.93;;;1.20;;
58242;SDS011;50118;53.232;8.252;2022-10-16T14:45:09;4.78;;;1.27;;
58242;SDS011;50118;53.232;8.252;2022-10-16T14:47:36;5.35;;;1.67;;
58242;SDS011;50118;53.232;8.252;2022-10-16T14:50:18;6.03;;;1.40;;
58242;SDS011;50118;53.232;8.252;2022-10-16T14:52:43;4.82;;;1.30;;
58242;SDS011;50118;53.232;8.252;2022-10-16T14:56:03;6.85;;;1.63;;
58242;SDS011;50118;53.232;8.252;2022-10-16T14:58:20;5.50;;;1.40;;
58242;SDS011;50118;53.232;8.252;2022-10-16T15:00:47;5.13;;;1.30;;
58242;SDS011;50118;53.232;8.252;2022-10-16T15:03:19;4.70;;;1.42;;
58242;SDS011;50118;53.232;8.252;2022-10-16T15:05:44;5.55;;;1.33;;
58242;SDS011;50118;53.232;8.252;2022-10-16T15:08:10;5.82;;;1.60;;
58242;SDS011;50118;53.232;8.252;2022-10-16T15:10:42;6.97;;;1.40;;
58242;SDS011;50118;53.232;8.252;2022-10-16T15:13:11;4.72;;;1.40;;
58242;SDS011;50118;53.232;8.252;2022-10-16T15:15:46;7.03;;;1.60;;
58242;SDS011;50118;53.232;8.252;2022-10-16T15:18:15;9.13;;;1.52;;
58242;SDS011;50118;53.232;8.252;2022-10-16T15:20:45;4.55;;;1.40;;
58242;SDS011;50118;53.232;8.252;2022-10-16T15:23:15;6.93;;;1.50;;
58242;SDS011;50118;53.232;8.252;2022-10-16T15:28:11;7.00;;;1.42;;
58242;SDS011;50118;53.232;8.252;2022-10-16T15:30:41;4.10;;;1.27;;
58242;SDS011;50118;53.232;8.252;2022-10-16T15:33:13;4.25;;;1.50;;
58242;SDS011;50118;53.232;8.252;2022-10-16T15:35:48;8.15;;;1.70;;
58242;SDS011;50118;53.232;8.252;2022-10-16T15:38:37;4.70;;;1.35;;
58242;SDS011;50118;53.232;8.252;2022-10-16T15:41:18;6.00;;;1.60;;
58242;SDS011;50118;53.232;8.252;2022-10-16T15:43:43;8.23;;;1.50;;
58242;SDS011;50118;53.232;8.252;2022-10-16T15:46:54;3.75;;;1.50;;
58242;SDS011;50118;53.232;8.252;2022-10-16T15:49:12;6.35;;;1.38;;
58242;SDS011;50118;53.232;8.252;2022-10-16T15:51:38;6.10;;;1.50;;
58242;SDS011;50118;53.232;8.252;2022-10-16T15:54:05;5.25;;;1.40;;
58242;SDS011;50118;53.232;8.252;2022-10-16T15:56:40;4.53;;;1.48;;
58242;SDS011;50118;53.232;8.252;2022-10-16T15:59:05;4.68;;;1.55;;
58242;SDS011;50118;53.232;8.252;2022-10-16T16:01:35;5.50;;;1.60;;
58242;SDS011;50118;53.232;8.252;2022-10-16T16:04:01;6.53;;;1.55;;
58242;SDS011;50118;53.232;8.252;2022-10-16T16:06:26;5.30;;;1.50;;
58242;SDS011;50118;53.232;8.252;2022-10-16T16:08:52;6.18;;;1.80;;
58242;SDS011;50118;53.232;8.252;2022-10-16T16:11:38;6.90;;;1.90;;
58242;SDS011;50118;53.232;8.252;2022-10-16T16:14:04;6.05;;;2.05;;
58242;SDS011;50118;53.232;8.252;2022-10-16T16:16:35;8.27;;;3.92;;
58242;SDS011;50118;53.232;8.252;2022-10-16T16:19:03;6.63;;;3.47;;
58242;SDS011;50118;53.232;8.252;2022-10-16T16:21:31;9.00;;;3.70;;
58242;SDS011;50118;53.232;8.252;2022-10-16T16:24:05;10.63;;;5.32;;
58242;SDS011;50118;53.232;8.252;2022-10-16T16:26:33;11.65;;;6.80;;
58242;SDS011;50118;53.232;8.252;2022-10-16T16:29:03;13.32;;;7.30;;
58242;SDS011;50118;53.232;8.252;2022-10-16T16:31:29;10.15;;;5.47;;
58242;SDS011;50118;53.232;8.252;2022-10-16T16:33:59;8.02;;;3.90;;
58242;SDS011;50118;53.232;8.252;2022-10-16T16:36:24;6.75;;;3.35;;
58242;SDS011;50118;53.232;8.252;2022-10-16T16:38:52;7.07;;;3.90;;
58242;SDS011;50118;53.232;8.252;2022-10-16T16:41:19;7.60;;;4.18;;
58242;SDS011;50118;53.232;8.252;2022-10-16T16:43:46;12.02;;;6.60;;
58242;SDS011;50118;53.232;8.252;2022-10-16T16:46:13;13.60;;;9.48;;
58242;SDS011;50118;53.232;8.252;2022-10-16T16:48:39;14.27;;;10.40;;
58242;SDS011;50118;53.232;8.252;2022-10-16T16:51:05;24.23;;;16.58;;
58242;SDS011;50118;53.232;8.252;2022-10-16T16:53:35;22.88;;;15.30;;
58242;SDS011;50118;53.232;8.252;2022-10-16T16:56:04;21.02;;;15.35;;
58242;SDS011;50118;53.232;8.252;2022-10-16T16:58:36;20.85;;;14.60;;
58242;SDS011;50118;53.232;8.252;2022-10-16T17:01:02;21.45;;;15.00;;
58242;SDS011;50118;53.232;8.252;2022-10-16T17:03:32;26.00;;;17.15;;
58242;SDS011;50118;53.232;8.252;2022-10-16T17:06:03;23.30;;;17.10;;
58242;SDS011;50118;53.232;8.252;2022-10-16T17:08:30;17.33;;;12.95;;
58242;SDS011;50118;53.232;8.252;2022-10-16T17:10:56;16.52;;;10.88;;
58242;SDS011;50118;53.232;8.252;2022-10-16T17:13:23;14.63;;;9.95;;
58242;SDS011;50118;53.232;8.252;2022-10-16T17:15:50;15.70;;;11.38;;
58242;SDS011;50118;53.232;8.252;2022-10-16T17:18:17;17.13;;;12.10;;
58242;SDS011;50118;53.232;8.252;2022-10-16T17:20:46;13.80;;;10.52;;
58242;SDS011;50118;53.232;8.252;2022-10-16T17:23:12;13.93;;;8.65;;
58242;SDS011;50118;53.232;8.252;2022-10-16T17:25:38;10.00;;;7.30;;
58242;SDS011;50118;53.232;8.252;2022-10-16T17:28:04;9.77;;;6.30;;
58242;SDS011;50118;53.232;8.252;2022-10-16T17:30:31;8.00;;;4.00;;
58242;SDS011;50118;53.232;8.252;2022-10-16T17:32:59;8.38;;;4.88;;
58242;SDS011;50118;53.232;8.252;2022-10-16T17:35:37;6.85;;;3.72;;
58242;SDS011;50118;53.232;8.252;2022-10-16T17:38:24;7.18;;;3.30;;
58242;SDS011;50118;53.232;8.252;2022-10-16T17:40:53;6.78;;;3.58;;
58242;SDS011;50118;53.232;8.252;2022-10-16T17:43:18;5.97;;;3.30;;
58242;SDS011;50118;53.232;8.252;2022-10-16T17:45:44;7.70;;;2.85;;
58242;SDS011;50118;53.232;8.252;2022-10-16T17:48:09;7.28;;;2.72;;
58242;SDS011;50118;53.232;8.252;2022-10-16T17:50:38;4.75;;;2.30;;
58242;SDS011;50118;53.232;8.252;2022-10-16T17:53:05;4.40;;;2.08;;
58242;SDS011;50118;53.232;8.252;2022-10-16T17:55:30;4.03;;;1.75;;
58242;SDS011;50118;53.232;8.252;2022-10-16T17:57:56;7.95;;;2.90;;
58242;SDS011;50118;53.232;8.252;2022-10-16T18:00:24;6.28;;;2.60;;
58242;SDS011;50118;53.232;8.252;2022-10-16T18:02:49;7.68;;;2.22;;
58242;SDS011;50118;53.232;8.252;2022-10-16T18:05:15;4.88;;;2.90;;
58242;SDS011;50118;53.232;8.252;2022-10-16T18:07:41;6.70;;;2.63;;
58242;SDS011;50118;53.232;8.252;2022-10-16T18:10:06;7.13;;;2.42;;
58242;SDS011;50118;53.232;8.252;2022-10-16T18:12:33;6.80;;;2.42;;
58242;SDS011;50118;53.232;8.252;2022-10-16T18:14:59;3.60;;;1.83;;
58242;SDS011;50118;53.232;8.252;2022-10-16T18:17:24;5.03;;;2.28;;
58242;SDS011;50118;53.232;8.252;2022-10-16T18:19:50;5.10;;;2.13;;
58242;SDS011;50118;53.232;8.252;2022-10-16T18:22:15;7.75;;;4.72;;
58242;SDS011;50118;53.232;8.252;2022-10-16T18:24:41;15.50;;;7.25;;
58242;SDS011;50118;53.232;8.252;2022-10-16T18:27:06;12.48;;;8.20;;
58242;SDS011;50118;53.232;8.252;2022-10-16T18:29:32;10.15;;;6.60;;
58242;SDS011;50118;53.232;8.252;2022-10-16T18:31:58;10.63;;;4.75;;
58242;SDS011;50118;53.232;8.252;2022-10-16T18:34:23;11.15;;;5.30;;
58242;SDS011;50118;53.232;8.252;2022-10-16T18:36:51;17.15;;;6.93;;
58242;SDS011;50118;53.232;8.252;2022-10-16T18:39:16;16.67;;;8.80;;
58242;SDS011;50118;53.232;8.252;2022-10-16T18:41:44;21.80;;;11.20;;
58242;SDS011;50118;53.232;8.252;2022-10-16T18:44:11;20.45;;;10.77;;
58242;SDS011;50118;53.232;8.252;2022-10-16T18:46:37;24.48;;;12.40;;
58242;SDS011;50118;53.232;8.252;2022-10-16T18:49:03;20.40;;;11.90;;
58242;SDS011;50118;53.232;8.252;2022-10-16T18:51:30;20.15;;;11.52;;
58242;SDS011;50118;53.232;8.252;2022-10-16T18:53:59;19.10;;;11.32;;
58242;SDS011;50118;53.232;8.252;2022-10-16T18:56:27;19.00;;;11.73;;
58242;SDS011;50118;53.232;8.252;2022-10-16T18:58:54;21.25;;;11.98;;
58242;SDS011;50118;53.232;8.252;2022-10-16T19:01:23;22.00;;;12.75;;
58242;SDS011;50118;53.232;8.252;2022-10-16T19:03:54;19.67;;;10.95;;
58242;SDS011;50118;53.232;8.252;2022-10-16T19:06:21;16.27;;;9.48;;
58242;SDS011;50118;53.232;8.252;2022-10-16T19:08:47;13.38;;;7.18;;
58242;SDS011;50118;53.232;8.252;2022-10-16T19:11:13;11.25;;;6.25;;
58242;SDS011;50118;53.232;8.252;2022-10-16T19:13:41;12.77;;;7.38;;
58242;SDS011;50118;53.232;8.252;2022-10-16T19:16:09;24.77;;;13.50;;
58242;SDS011;50118;53.232;8.252;2022-10-16T19:18:36;16.60;;;10.07;;
58242;SDS011;50118;53.232;8.252;2022-10-16T19:21:04;13.18;;;6.40;;
58242;SDS011;50118;53.232;8.252;2022-10-16T19:23:31;9.60;;;6.15;;
58242;SDS011;50118;53.232;8.252;2022-10-16T19:26:04;11.13;;;7.53;;
58242;SDS011;50118;53.232;8.252;2022-10-16T19:28:30;13.05;;;8.93;;
58242;SDS011;50118;53.232;8.252;2022-10-16T19:30:56;21.88;;;12.13;;
58242;SDS011;50118;53.232;8.252;2022-10-16T19:33:25;26.17;;;13.75;;
58242;SDS011;50118;53.232;8.252;2022-10-16T19:35:51;20.65;;;10.77;;
58242;SDS011;50118;53.232;8.252;2022-10-16T19:38:16;16.60;;;10.77;;
58242;SDS011;50118;53.232;8.252;2022-10-16T19:40:42;20.70;;;12.40;;
58242;SDS011;50118;53.232;8.252;2022-10-16T19:43:07;23.25;;;12.43;;
58242;SDS011;50118;53.232;8.252;2022-10-16T19:45:33;15.35;;;8.45;;
58242;SDS011;50118;53.232;8.252;2022-10-16T19:47:58;13.43;;;8.30;;
58242;SDS011;50118;53.232;8.252;2022-10-16T19:50:24;10.85;;;7.10;;
58242;SDS011;50118;53.232;8.252;2022-10-16T19:52:49;34.20;;;16.83;;
58242;SDS011;50118;53.232;8.252;2022-10-16T19:55:15;52.33;;;22.00;;
58242;SDS011;50118;53.232;8.252;2022-10-16T19:57:41;43.72;;;21.20;;
58242;SDS011;50118;53.232;8.252;2022-10-16T20:00:07;40.53;;;19.60;;
58242;SDS011;50118;53.232;8.252;2022-10-16T20:02:34;39.70;;;19.33;;
58242;SDS011;50118;53.232;8.252;2022-10-16T20:05:00;36.20;;;18.58;;
58242;SDS011;50118;53.232;8.252;2022-10-16T20:07:25;32.40;;;17.73;;
58242;SDS011;50118;53.232;8.252;2022-10-16T20:09:50;28.40;;;14.77;;
58242;SDS011;50118;53.232;8.252;2022-10-16T20:12:16;33.42;;;15.90;;
58242;SDS011;50118;53.232;8.252;2022-10-16T20:14:42;35.30;;;17.10;;
58242;SDS011;50118;53.232;8.252;2022-10-16T20:17:08;25.20;;;13.15;;